createdAt,value
2017-12-14T00:02:07.221Z,8.00
2017-12-14T00:04:35.278Z,8.35
2017-12-14T00:07:03.338Z,7.03
2017-12-14T00:09:31.406Z,7.90
2017-12-14T00:11:59.459Z,3.90
2017-12-14T00:14:27.557Z,7.22
2017-12-14T00:16:56.026Z,5.60
2017-12-14T00:19:24.081Z,4.70
2017-12-14T00:21:52.144Z,4.03
2017-12-14T00:24:20.393Z,4.85
2017-12-14T00:26:49.215Z,3.65
2017-12-14T00:29:17.275Z,3.30
2017-12-14T00:31:45.427Z,3.15
2017-12-14T00:34:14.259Z,3.35
2017-12-14T00:36:42.317Z,2.70
2017-12-14T00:39:10.389Z,3.15
2017-12-14T00:41:38.457Z,3.67
2017-12-14T00:44:06.525Z,3.03
2017-12-14T00:46:34.590Z,2.67
2017-12-14T00:49:02.639Z,2.42
2017-12-14T00:51:31.499Z,2.95
2017-12-14T00:53:59.555Z,2.75
2017-12-14T00:56:27.612Z,2.72
2017-12-14T00:58:55.685Z,2.80
2017-12-14T01:01:23.751Z,2.70
2017-12-14T01:03:51.789Z,2.35
2017-12-14T01:06:19.847Z,2.50
2017-12-14T01:08:48.731Z,2.42
2017-12-14T01:11:16.840Z,2.72
2017-12-14T01:13:44.915Z,2.42
2017-12-14T01:16:12.983Z,2.20
2017-12-14T01:18:41.036Z,2.50
2017-12-14T01:21:09.107Z,3.10
2017-12-14T01:23:37.258Z,2.53
2017-12-14T01:26:06.092Z,2.72
2017-12-14T01:28:34.156Z,2.97
2017-12-14T01:31:02.228Z,2.70
2017-12-14T01:33:30.274Z,2.60
2017-12-14T01:35:58.330Z,2.30
2017-12-14T01:38:27.154Z,2.50
2017-12-14T01:40:55.222Z,3.15
2017-12-14T01:43:23.294Z,3.20
2017-12-14T01:45:51.415Z,3.05
2017-12-14T01:48:19.470Z,3.70
2017-12-14T01:50:47.527Z,3.12
2017-12-14T01:53:15.596Z,2.90
2017-12-14T01:55:43.654Z,3.20
2017-12-14T01:58:11.778Z,3.50
2017-12-14T02:00:39.821Z,3.85
2017-12-14T02:03:07.886Z,4.62
2017-12-14T02:05:35.946Z,4.47
2017-12-14T02:08:04.029Z,5.25
2017-12-14T02:10:32.070Z,4.30
2017-12-14T02:13:00.147Z,4.15
2017-12-14T02:15:28.585Z,4.45
2017-12-14T02:17:57.402Z,5.05
2017-12-14T02:20:25.470Z,4.75
2017-12-14T02:22:53.571Z,5.37
2017-12-14T02:25:22.078Z,4.85
2017-12-14T02:27:50.145Z,4.60
2017-12-14T02:30:18.202Z,4.93
2017-12-14T02:32:46.266Z,4.35
2017-12-14T02:35:14.343Z,5.70
2017-12-14T02:37:42.416Z,5.25
2017-12-14T02:40:10.492Z,6.03
2017-12-14T02:42:38.538Z,5.28
2017-12-14T02:45:06.611Z,4.65
2017-12-14T02:47:35.400Z,4.32
2017-12-14T02:50:03.476Z,6.10
2017-12-14T02:52:31.548Z,5.00
2017-12-14T02:55:00.346Z,4.80
2017-12-14T02:57:28.515Z,5.68
2017-12-14T02:59:56.578Z,5.35
2017-12-14T03:02:24.650Z,6.37
2017-12-14T03:04:52.723Z,6.70
2017-12-14T03:07:20.786Z,6.00
2017-12-14T03:09:48.862Z,5.57
2017-12-14T03:12:16.927Z,5.40
2017-12-14T03:14:44.983Z,5.97
2017-12-14T03:17:13.041Z,5.47
2017-12-14T03:19:41.370Z,6.40
2017-12-14T03:22:10.607Z,6.32
2017-12-14T03:24:38.663Z,4.40
2017-12-14T03:27:06.730Z,5.05
2017-12-14T03:29:34.866Z,4.75
2017-12-14T03:32:02.922Z,5.50
2017-12-14T03:34:30.988Z,4.82
2017-12-14T03:36:59.155Z,4.85
2017-12-14T03:39:27.218Z,5.65
2017-12-14T03:41:55.328Z,4.37
2017-12-14T03:44:23.888Z,4.87
2017-12-14T03:46:52.879Z,5.03
2017-12-14T03:49:20.943Z,5.78
2017-12-14T03:51:49.002Z,4.87
2017-12-14T03:54:17.113Z,4.80
2017-12-14T03:56:45.166Z,4.62
2017-12-14T03:59:13.222Z,4.43
2017-12-14T04:01:41.947Z,4.57
2017-12-14T04:04:10.098Z,3.90
2017-12-14T04:06:38.177Z,2.92
2017-12-14T04:09:06.335Z,3.00
2017-12-14T04:11:34.400Z,3.53
2017-12-14T04:14:02.482Z,3.60
2017-12-14T04:16:30.550Z,3.00
2017-12-14T04:18:58.605Z,3.00
2017-12-14T04:21:26.699Z,2.92
2017-12-14T04:23:54.766Z,3.22
2017-12-14T04:26:22.823Z,2.80
2017-12-14T04:28:50.933Z,2.80
2017-12-14T04:31:18.989Z,2.70
2017-12-14T04:33:47.037Z,2.58
2017-12-14T04:36:15.096Z,1.98
2017-12-14T04:38:43.151Z,2.67
2017-12-14T04:41:11.207Z,2.25
2017-12-14T04:43:39.317Z,2.00
2017-12-14T04:46:08.098Z,2.45
2017-12-14T04:48:36.206Z,2.78
2017-12-14T04:51:04.267Z,2.10
2017-12-14T04:53:32.327Z,2.20
2017-12-14T04:56:00.400Z,1.90
2017-12-14T04:58:28.451Z,1.77
2017-12-14T05:00:56.515Z,1.70
2017-12-14T05:03:24.574Z,1.90
2017-12-14T05:05:52.675Z,2.30
2017-12-14T05:08:20.742Z,2.12
2017-12-14T05:10:48.814Z,1.73
2017-12-14T05:13:16.958Z,1.90
2017-12-14T05:15:45.230Z,1.90
2017-12-14T05:18:13.303Z,2.00
2017-12-14T05:20:41.376Z,1.60
2017-12-14T05:23:09.426Z,2.17
2017-12-14T05:25:37.564Z,2.08
2017-12-14T05:28:05.621Z,2.20
2017-12-14T05:30:33.690Z,1.95
2017-12-14T05:33:01.763Z,1.70
2017-12-14T05:35:29.813Z,1.70
2017-12-14T05:37:57.881Z,2.10
2017-12-14T05:40:25.964Z,1.92
2017-12-14T05:42:54.034Z,1.60
2017-12-14T05:45:22.095Z,2.00
2017-12-14T05:47:50.178Z,2.15
2017-12-14T05:50:18.246Z,1.87
2017-12-14T05:52:46.314Z,2.20
2017-12-14T05:55:14.370Z,1.90
2017-12-14T05:57:42.438Z,1.50
2017-12-14T06:00:10.513Z,1.50
2017-12-14T06:02:38.571Z,1.70
2017-12-14T06:05:06.638Z,1.90
2017-12-14T06:07:34.705Z,1.45
2017-12-14T06:10:02.781Z,1.52
2017-12-14T06:12:30.836Z,1.90
2017-12-14T06:14:58.890Z,2.08
2017-12-14T06:17:27.725Z,2.00
2017-12-14T06:19:55.782Z,1.80
2017-12-14T06:22:23.830Z,1.50
2017-12-14T06:24:51.900Z,2.05
2017-12-14T06:27:19.945Z,1.67
2017-12-14T06:29:48.773Z,2.10
2017-12-14T06:32:16.834Z,2.50
2017-12-14T06:34:44.890Z,1.80
2017-12-14T06:37:13.723Z,2.22
2017-12-14T06:39:42.689Z,2.00
2017-12-14T06:42:10.809Z,2.08
2017-12-14T06:44:38.877Z,2.03
2017-12-14T06:47:06.958Z,2.10
2017-12-14T06:49:35.011Z,1.90
2017-12-14T06:52:03.074Z,2.20
2017-12-14T06:54:31.132Z,2.20
2017-12-14T06:56:59.227Z,2.00
2017-12-14T06:59:27.298Z,1.70
2017-12-14T07:01:55.358Z,2.00
2017-12-14T07:04:23.424Z,2.30
2017-12-14T07:06:51.489Z,2.25
2017-12-14T07:09:19.542Z,1.95
2017-12-14T07:11:47.610Z,2.62
2017-12-14T07:14:15.662Z,2.42
2017-12-14T07:16:44.787Z,2.40
2017-12-14T07:19:12.833Z,2.12
2017-12-14T07:21:40.903Z,2.37
2017-12-14T07:24:09.027Z,2.90
2017-12-14T07:26:37.078Z,2.30
2017-12-14T07:29:05.138Z,2.40
2017-12-14T07:31:33.217Z,2.00
2017-12-14T07:34:01.272Z,2.85
2017-12-14T07:36:29.394Z,2.30
2017-12-14T07:38:57.466Z,2.60
2017-12-14T07:41:25.525Z,2.10
2017-12-14T07:44:11.613Z,2.45
2017-12-14T07:46:57.595Z,2.67
2017-12-14T07:49:25.674Z,3.08
2017-12-14T07:51:53.737Z,2.75
2017-12-14T07:54:21.802Z,2.97
2017-12-14T07:56:49.878Z,2.53
2017-12-14T07:59:17.939Z,2.90
2017-12-14T08:01:46.498Z,3.00
2017-12-14T08:04:14.562Z,3.03
2017-12-14T08:06:42.694Z,3.70
2017-12-14T08:09:10.854Z,3.17
2017-12-14T08:11:39.031Z,2.40
2017-12-14T08:14:07.108Z,2.85
2017-12-14T08:16:35.280Z,3.20
2017-12-14T08:19:03.351Z,2.90
2017-12-14T08:21:31.422Z,3.20
2017-12-14T08:23:59.588Z,2.62
2017-12-14T08:26:27.647Z,2.62
2017-12-14T08:28:55.715Z,3.15
2017-12-14T08:31:23.782Z,2.50
2017-12-14T08:33:51.859Z,3.00
2017-12-14T08:36:19.937Z,2.22
2017-12-14T08:38:48.003Z,2.75
2017-12-14T08:41:16.063Z,2.92
2017-12-14T08:43:44.132Z,3.10
2017-12-14T08:46:12.204Z,2.65
2017-12-14T08:48:40.272Z,2.87
2017-12-14T08:51:08.334Z,2.90
2017-12-14T08:53:36.403Z,2.97
2017-12-14T08:56:04.488Z,3.03
2017-12-14T08:58:32.559Z,2.80
2017-12-14T09:01:00.622Z,2.95
2017-12-14T09:03:28.678Z,3.30
2017-12-14T09:05:56.746Z,2.70
2017-12-14T09:08:24.822Z,3.17
2017-12-14T09:10:52.883Z,3.03
2017-12-14T09:13:20.979Z,3.10
2017-12-14T09:15:49.030Z,3.12
2017-12-14T09:18:17.107Z,3.00
2017-12-14T09:20:45.182Z,2.90
2017-12-14T09:23:13.259Z,3.05
2017-12-14T09:25:41.327Z,3.70
2017-12-14T09:28:09.382Z,3.25
2017-12-14T09:30:37.460Z,3.05
2017-12-14T09:33:05.527Z,2.85
2017-12-14T09:35:33.626Z,2.80
2017-12-14T09:38:02.490Z,2.95
2017-12-14T09:40:30.555Z,2.60
2017-12-14T09:42:58.630Z,3.22
2017-12-14T09:45:26.700Z,3.33
2017-12-14T09:47:54.756Z,4.25
2017-12-14T09:50:22.819Z,3.03
2017-12-14T09:52:50.884Z,2.75
2017-12-14T09:55:19.016Z,3.10
2017-12-14T09:57:47.065Z,3.40
2017-12-14T10:00:15.125Z,3.40
2017-12-14T10:02:43.215Z,3.65
2017-12-14T10:05:11.286Z,3.30
2017-12-14T10:07:39.358Z,3.25
2017-12-14T10:10:07.450Z,2.67
2017-12-14T10:12:35.546Z,2.75
2017-12-14T10:15:04.358Z,2.75
2017-12-14T10:17:32.427Z,2.90
2017-12-14T10:20:00.485Z,2.83
2017-12-14T10:22:28.560Z,2.47
2017-12-14T10:24:56.627Z,2.72
2017-12-14T10:27:24.803Z,2.50
2017-12-14T10:29:52.867Z,2.87
2017-12-14T10:32:20.990Z,2.45
2017-12-14T10:34:49.051Z,2.33
2017-12-14T10:37:17.176Z,2.20
2017-12-14T10:39:45.203Z,2.22
2017-12-14T10:42:13.288Z,2.15
2017-12-14T10:44:41.341Z,2.00
2017-12-14T10:47:09.413Z,2.15
2017-12-14T10:49:37.483Z,2.15
2017-12-14T10:52:05.554Z,2.67
2017-12-14T10:54:33.622Z,2.05
2017-12-14T10:57:01.688Z,2.10
2017-12-14T10:59:29.763Z,2.17
2017-12-14T11:01:57.844Z,1.98
2017-12-14T11:04:25.912Z,2.30
2017-12-14T11:06:53.982Z,2.40
2017-12-14T11:09:22.083Z,2.35
2017-12-14T11:11:50.930Z,1.60
2017-12-14T11:14:19.022Z,2.10
2017-12-14T11:16:47.091Z,2.00
2017-12-14T11:19:15.162Z,2.12
2017-12-14T11:21:43.319Z,1.80
2017-12-14T11:24:11.406Z,2.15
2017-12-14T11:26:39.479Z,2.05
2017-12-14T11:29:07.549Z,2.17
2017-12-14T11:31:35.619Z,2.25
2017-12-14T11:34:03.716Z,1.80
2017-12-14T11:36:31.788Z,1.73
2017-12-14T11:38:59.865Z,2.05
2017-12-14T11:41:27.947Z,2.25
2017-12-14T11:43:56.020Z,2.58
2017-12-14T11:46:24.087Z,2.20
2017-12-14T11:48:52.158Z,1.60
2017-12-14T11:51:20.226Z,1.70
2017-12-14T11:53:48.287Z,1.50
2017-12-14T11:56:16.403Z,2.10
2017-12-14T11:58:44.458Z,1.80
2017-12-14T12:01:12.518Z,1.50
2017-12-14T12:03:40.610Z,1.52
2017-12-14T12:06:08.707Z,1.80
2017-12-14T12:08:36.758Z,1.62
2017-12-14T12:11:04.832Z,1.40
2017-12-14T12:13:32.968Z,1.50
2017-12-14T12:16:01.035Z,1.77
2017-12-14T12:18:29.110Z,1.30
2017-12-14T12:20:57.182Z,1.77
2017-12-14T12:23:25.253Z,1.45
2017-12-14T12:25:53.319Z,1.50
2017-12-14T12:28:27.182Z,1.30
2017-12-14T12:30:56.016Z,1.30
2017-12-14T12:33:24.121Z,1.20
2017-12-14T12:35:52.196Z,1.55
2017-12-14T12:38:20.245Z,1.50
2017-12-14T12:40:48.314Z,1.45
2017-12-14T12:43:16.389Z,1.40
2017-12-14T12:45:44.478Z,1.45
2017-12-14T12:48:12.535Z,1.40
2017-12-14T12:50:40.630Z,1.42
2017-12-14T12:53:08.691Z,1.40
2017-12-14T12:55:36.752Z,1.55
2017-12-14T12:58:04.824Z,2.10
2017-12-14T13:00:32.879Z,1.85
2017-12-14T13:03:00.952Z,1.50
2017-12-14T13:05:29.010Z,1.40
2017-12-14T13:07:57.077Z,1.75
2017-12-14T13:10:25.152Z,1.65
2017-12-14T13:12:53.218Z,1.50
2017-12-14T13:15:21.290Z,2.28
2017-12-14T13:17:49.374Z,1.90
2017-12-14T13:20:17.439Z,1.90
2017-12-14T13:22:45.498Z,1.70
2017-12-14T13:25:13.568Z,1.52
2017-12-14T13:27:41.638Z,2.05
2017-12-14T13:30:09.704Z,3.15
2017-12-14T13:32:37.754Z,2.45
2017-12-14T13:35:06.585Z,1.35
2017-12-14T13:37:34.644Z,1.50
2017-12-14T13:40:02.750Z,1.90
2017-12-14T13:42:30.805Z,1.58
2017-12-14T13:44:58.875Z,1.98
2017-12-14T13:47:26.953Z,2.20
2017-12-14T13:49:55.041Z,2.10
2017-12-14T13:52:23.109Z,2.08
2017-12-14T13:54:51.158Z,2.03
2017-12-14T13:57:19.210Z,1.62
2017-12-14T13:59:48.190Z,1.60
2017-12-14T14:02:16.242Z,1.50
2017-12-14T14:04:44.302Z,1.83
2017-12-14T14:07:13.210Z,2.65
2017-12-14T14:09:41.331Z,2.35
2017-12-14T14:12:09.442Z,1.70
2017-12-14T14:14:37.623Z,1.95
2017-12-14T14:17:05.644Z,1.70
2017-12-14T14:19:33.700Z,2.10
2017-12-14T14:22:01.775Z,1.70
2017-12-14T14:24:29.828Z,2.03
2017-12-14T14:26:57.883Z,2.40
2017-12-14T14:29:25.942Z,2.05
2017-12-14T14:31:54.084Z,1.80
2017-12-14T14:34:22.172Z,1.75
2017-12-14T14:36:51.005Z,1.73
2017-12-14T14:39:19.063Z,1.60
2017-12-14T14:41:47.118Z,3.10
2017-12-14T14:44:15.190Z,1.90
2017-12-14T14:46:43.249Z,1.90
2017-12-14T14:49:11.302Z,1.73
2017-12-14T14:51:40.174Z,1.90
2017-12-14T14:54:08.237Z,2.42
2017-12-14T14:56:36.290Z,1.65
2017-12-14T14:59:04.349Z,2.37
2017-12-14T15:01:34.366Z,1.90
2017-12-14T15:04:02.474Z,2.08
2017-12-14T15:06:30.643Z,2.45
2017-12-14T15:08:58.824Z,1.70
2017-12-14T15:11:26.906Z,2.08
2017-12-14T15:13:54.967Z,1.83
2017-12-14T15:16:23.035Z,2.00
2017-12-14T15:18:51.097Z,2.20
2017-12-14T15:21:19.182Z,2.45
2017-12-14T15:23:47.249Z,2.28
2017-12-14T15:26:15.411Z,2.20
2017-12-14T15:28:43.597Z,2.30
2017-12-14T15:31:11.649Z,1.90
2017-12-14T15:33:39.720Z,1.73
2017-12-14T15:36:07.774Z,2.03
2017-12-14T15:38:35.839Z,2.67
2017-12-14T15:41:03.913Z,2.62
2017-12-14T15:43:31.966Z,2.47
2017-12-14T15:46:00.035Z,1.95
2017-12-14T15:48:28.104Z,2.92
2017-12-14T15:50:56.158Z,2.58
2017-12-14T15:53:24.223Z,3.03
2017-12-14T15:55:52.360Z,2.53
2017-12-14T15:58:20.433Z,2.85
2017-12-14T16:00:48.504Z,2.40
2017-12-14T16:03:16.562Z,2.58
2017-12-14T16:05:44.623Z,3.00
2017-12-14T16:08:12.691Z,2.85
2017-12-14T16:10:40.753Z,3.00
2017-12-14T16:13:08.826Z,2.47
2017-12-14T16:15:36.918Z,2.40
2017-12-14T16:18:04.950Z,2.30
2017-12-14T16:20:33.012Z,2.60
2017-12-14T16:23:01.066Z,2.50
2017-12-14T16:25:29.898Z,2.90
2017-12-14T16:27:57.962Z,2.58
2017-12-14T16:30:26.018Z,3.78
2017-12-14T16:32:54.478Z,3.28
2017-12-14T16:35:23.369Z,3.30
2017-12-14T16:37:52.202Z,3.60
2017-12-14T16:40:20.277Z,3.28
2017-12-14T16:42:48.367Z,3.95
2017-12-14T16:45:16.426Z,4.72
2017-12-14T16:47:44.503Z,4.50
2017-12-14T16:50:12.558Z,4.57
2017-12-14T16:52:40.627Z,4.05
2017-12-14T16:55:08.719Z,4.55
2017-12-14T16:57:37.189Z,3.65
2017-12-14T17:00:05.927Z,4.62
2017-12-14T17:02:33.998Z,4.03
2017-12-14T17:05:02.050Z,5.40
2017-12-14T17:07:30.886Z,4.30
2017-12-14T17:09:59.168Z,4.50
2017-12-14T17:12:27.225Z,4.62
2017-12-14T17:14:55.329Z,5.68
2017-12-14T17:17:23.410Z,5.32
2017-12-14T17:19:52.467Z,4.78
2017-12-14T17:22:20.539Z,4.53
2017-12-14T17:24:48.636Z,5.90
2017-12-14T17:27:16.817Z,6.32
2017-12-14T17:29:44.987Z,4.78
2017-12-14T17:32:13.056Z,6.15
2017-12-14T17:34:41.127Z,5.37
2017-12-14T17:37:09.210Z,6.82
2017-12-14T17:39:37.282Z,4.65
2017-12-14T17:42:06.114Z,4.60
2017-12-14T17:44:34.190Z,5.35
2017-12-14T17:47:02.256Z,5.50
2017-12-14T17:49:30.352Z,5.55
2017-12-14T17:51:58.463Z,4.95
2017-12-14T17:54:27.298Z,5.35
2017-12-14T17:56:55.361Z,5.12
2017-12-14T17:59:23.418Z,4.90
2017-12-14T18:01:51.479Z,5.00
2017-12-14T18:04:19.534Z,5.40
2017-12-14T18:06:47.610Z,3.75
2017-12-14T18:09:16.436Z,3.90
2017-12-14T18:11:44.523Z,3.80
2017-12-14T18:14:12.578Z,4.72
2017-12-14T18:16:40.655Z,2.78
2017-12-14T18:19:08.714Z,2.75
2017-12-14T18:21:36.784Z,2.60
2017-12-14T18:24:04.837Z,2.03
2017-12-14T18:26:32.940Z,2.42
2017-12-14T18:29:01.003Z,1.90
2017-12-14T18:31:29.070Z,2.47
2017-12-14T18:33:57.173Z,2.50
2017-12-14T18:36:25.418Z,2.62
2017-12-14T18:38:53.809Z,2.25
2017-12-14T18:41:21.877Z,3.15
2017-12-14T18:43:49.954Z,2.87
2017-12-14T18:46:18.192Z,3.20
2017-12-14T18:48:47.020Z,2.97
2017-12-14T18:51:15.094Z,2.95
2017-12-14T18:53:43.256Z,4.07
2017-12-14T18:56:11.336Z,5.05
2017-12-14T18:58:39.402Z,8.07
2017-12-14T19:01:07.566Z,7.65
2017-12-14T19:03:35.648Z,10.65
2017-12-14T19:06:03.773Z,6.60
2017-12-14T19:08:31.870Z,4.47
2017-12-14T19:10:59.935Z,4.20
2017-12-14T19:13:28.039Z,4.60
2017-12-14T19:15:56.108Z,4.22
2017-12-14T19:18:24.150Z,4.00
2017-12-14T19:20:52.215Z,3.75
2017-12-14T19:23:20.277Z,3.58
2017-12-14T19:25:48.351Z,3.83
2017-12-14T19:28:16.412Z,3.25
2017-12-14T19:30:44.485Z,3.58
2017-12-14T19:33:12.563Z,3.85
2017-12-14T19:35:40.637Z,2.75
2017-12-14T19:38:08.692Z,2.78
2017-12-14T19:40:36.780Z,2.92
2017-12-14T19:43:04.835Z,2.83
2017-12-14T19:45:32.913Z,2.72
2017-12-14T19:48:00.984Z,3.55
2017-12-14T19:50:29.078Z,3.20
2017-12-14T19:52:57.156Z,3.40
2017-12-14T19:55:25.230Z,2.85
2017-12-14T19:57:53.395Z,4.57
2017-12-14T20:00:21.455Z,3.80
2017-12-14T20:02:49.530Z,4.10
2017-12-14T20:05:17.601Z,4.80
2017-12-14T20:07:46.475Z,5.10
2017-12-14T20:10:14.572Z,5.20
2017-12-14T20:12:42.744Z,4.20
2017-12-14T20:15:10.807Z,3.75
2017-12-14T20:17:38.868Z,4.15
2017-12-14T20:20:06.928Z,3.70
2017-12-14T20:22:35.018Z,4.72
2017-12-14T20:25:03.075Z,4.35
2017-12-14T20:27:31.162Z,4.18
2017-12-14T20:29:59.227Z,4.12
2017-12-14T20:32:27.289Z,4.40
2017-12-14T20:34:55.347Z,4.28
2017-12-14T20:37:23.418Z,3.67
2017-12-14T20:39:51.505Z,4.03
2017-12-14T20:42:19.575Z,4.78
2017-12-14T20:44:47.638Z,4.18
2017-12-14T20:47:15.694Z,4.07
2017-12-14T20:49:43.798Z,3.95
2017-12-14T20:52:11.862Z,3.37
2017-12-14T20:54:45.875Z,4.43
2017-12-14T20:57:13.963Z,4.87
2017-12-14T20:59:42.025Z,5.30
2017-12-14T21:02:10.095Z,6.07
2017-12-14T21:04:38.286Z,4.80
2017-12-14T21:07:06.339Z,5.30
2017-12-14T21:09:34.567Z,5.07
2017-12-14T21:12:02.625Z,5.95
2017-12-14T21:14:31.670Z,6.25
2017-12-14T21:16:59.730Z,5.45
2017-12-14T21:19:27.806Z,6.47
2017-12-14T21:21:55.868Z,6.28
2017-12-14T21:24:23.938Z,5.78
2017-12-14T21:26:51.997Z,6.82
2017-12-14T21:29:20.070Z,8.10
2017-12-14T21:31:48.133Z,6.00
2017-12-14T21:34:16.182Z,5.65
2017-12-14T21:36:44.243Z,6.15
2017-12-14T21:39:12.926Z,5.35
2017-12-14T21:41:41.749Z,6.00
2017-12-14T21:44:09.821Z,7.00
2017-12-14T21:46:37.880Z,6.47
2017-12-14T21:49:06.071Z,6.65
2017-12-14T21:51:34.130Z,6.62
2017-12-14T21:54:02.195Z,6.32
2017-12-14T21:56:30.264Z,5.18
2017-12-14T21:58:58.319Z,4.30
2017-12-14T22:01:26.382Z,4.70
2017-12-14T22:03:55.409Z,4.68
2017-12-14T22:06:23.473Z,5.32
2017-12-14T22:08:52.025Z,5.32
2017-12-14T22:11:20.868Z,4.90
2017-12-14T22:13:48.955Z,4.37
2017-12-14T22:16:17.015Z,4.12
2017-12-14T22:18:45.078Z,4.30
2017-12-14T22:21:13.149Z,4.43
2017-12-14T22:23:41.218Z,5.70
2017-12-14T22:26:09.276Z,3.85
2017-12-14T22:28:37.365Z,3.42
2017-12-14T22:31:05.433Z,5.05
2017-12-14T22:33:33.497Z,4.85
2017-12-14T22:36:01.559Z,3.83
2017-12-14T22:38:29.659Z,3.67
2017-12-14T22:40:57.722Z,4.12
2017-12-14T22:43:25.791Z,4.65
2017-12-14T22:45:53.840Z,3.67
2017-12-14T22:48:21.897Z,3.78
2017-12-14T22:50:49.950Z,3.20
2017-12-14T22:53:18.022Z,3.40
2017-12-14T22:55:46.091Z,3.08
2017-12-14T22:58:14.150Z,3.40
2017-12-14T23:00:43.010Z,3.80
2017-12-14T23:03:11.070Z,3.70
2017-12-14T23:05:39.139Z,3.55
2017-12-14T23:08:07.485Z,2.97
2017-12-14T23:10:35.552Z,2.97
2017-12-14T23:13:03.649Z,3.60
2017-12-14T23:15:31.745Z,3.20
2017-12-14T23:17:59.806Z,3.03
2017-12-14T23:20:27.869Z,4.07
2017-12-14T23:22:56.438Z,2.60
2017-12-14T23:25:24.503Z,3.40
2017-12-14T23:27:52.563Z,2.85
2017-12-14T23:30:20.629Z,3.45
2017-12-14T23:32:49.288Z,3.15
2017-12-14T23:35:18.125Z,4.00
2017-12-14T23:37:46.182Z,3.60
2017-12-14T23:40:14.238Z,2.67
2017-12-14T23:42:42.300Z,3.60
2017-12-14T23:45:10.414Z,2.83
2017-12-14T23:47:38.478Z,3.83
2017-12-14T23:50:06.548Z,3.47
2017-12-14T23:52:34.602Z,2.85
2017-12-14T23:55:02.693Z,3.55
2017-12-14T23:57:30.781Z,3.37
2017-12-14T23:59:58.845Z,3.90
